sensor_id;sensor_type;location;lat;lon;timestamp;P1;durP1;ratioP1;P2;durP2;ratioP2
70444;SDS011;57902;49.638;11.070;2023-07-31T00:00:52;6.32;;;1.27;;
70444;SDS011;57902;49.638;11.070;2023-07-31T00:05:55;6.60;;;1.35;;
70444;SDS011;57902;49.638;11.070;2023-07-31T00:08:26;3.78;;;1.23;;
70444;SDS011;57902;49.638;11.070;2023-07-31T00:10:57;3.38;;;1.20;;
70444;SDS011;57902;49.638;11.070;2023-07-31T00:13:24;3.83;;;1.15;;
70444;SDS011;57902;49.638;11.070;2023-07-31T00:15:56;4.10;;;1.35;;
70444;SDS011;57902;49.638;11.070;2023-07-31T00:18:25;6.68;;;1.42;;
70444;SDS011;57902;49.638;11.070;2023-07-31T00:20:56;4.38;;;1.00;;
70444;SDS011;57902;49.638;11.070;2023-07-31T00:23:31;4.53;;;1.20;;
70444;SDS011;57902;49.638;11.070;2023-07-31T00:26:02;3.95;;;1.08;;
70444;SDS011;57902;49.638;11.070;2023-07-31T00:28:28;5.45;;;1.20;;
70444;SDS011;57902;49.638;11.070;2023-07-31T00:30:55;4.45;;;1.20;;
70444;SDS011;57902;49.638;11.070;2023-07-31T00:33:22;5.72;;;1.20;;
70444;SDS011;57902;49.638;11.070;2023-07-31T00:35:49;5.05;;;1.35;;
70444;SDS011;57902;49.638;11.070;2023-07-31T00:38:16;5.97;;;1.30;;
70444;SDS011;57902;49.638;11.070;2023-07-31T00:40:43;7.18;;;1.63;;
70444;SDS011;57902;49.638;11.070;2023-07-31T00:43:09;6.65;;;1.40;;
70444;SDS011;57902;49.638;11.070;2023-07-31T00:45:36;7.60;;;1.40;;
70444;SDS011;57902;49.638;11.070;2023-07-31T00:48:04;5.13;;;1.17;;
70444;SDS011;57902;49.638;11.070;2023-07-31T00:50:32;3.88;;;1.23;;
70444;SDS011;57902;49.638;11.070;2023-07-31T00:53:04;4.25;;;1.20;;
70444;SDS011;57902;49.638;11.070;2023-07-31T00:55:31;6.72;;;1.20;;
70444;SDS011;57902;49.638;11.070;2023-07-31T00:58:00;7.20;;;1.27;;
70444;SDS011;57902;49.638;11.070;2023-07-31T01:00:27;4.43;;;1.10;;
70444;SDS011;57902;49.638;11.070;2023-07-31T01:02:54;4.13;;;1.25;;
70444;SDS011;57902;49.638;11.070;2023-07-31T01:05:36;4.40;;;1.40;;
70444;SDS011;57902;49.638;11.070;2023-07-31T01:08:25;10.60;;;1.42;;
70444;SDS011;57902;49.638;11.070;2023-07-31T01:12:07;7.68;;;1.40;;
70444;SDS011;57902;49.638;11.070;2023-07-31T01:14:33;6.10;;;1.10;;
70444;SDS011;57902;49.638;11.070;2023-07-31T01:19:30;5.45;;;1.35;;
70444;SDS011;57902;49.638;11.070;2023-07-31T01:22:21;5.40;;;1.50;;
70444;SDS011;57902;49.638;11.070;2023-07-31T01:25:12;5.78;;;1.27;;
70444;SDS011;57902;49.638;11.070;2023-07-31T01:28:04;3.95;;;1.20;;
70444;SDS011;57902;49.638;11.070;2023-07-31T01:30:34;6.72;;;1.50;;
70444;SDS011;57902;49.638;11.070;2023-07-31T01:33:10;5.13;;;1.30;;
70444;SDS011;57902;49.638;11.070;2023-07-31T01:35:37;4.95;;;1.20;;
70444;SDS011;57902;49.638;11.070;2023-07-31T01:38:07;5.40;;;1.33;;
70444;SDS011;57902;49.638;11.070;2023-07-31T01:40:34;3.58;;;1.00;;
70444;SDS011;57902;49.638;11.070;2023-07-31T01:43:01;8.10;;;1.40;;
70444;SDS011;57902;49.638;11.070;2023-07-31T01:45:28;5.05;;;1.27;;
70444;SDS011;57902;49.638;11.070;2023-07-31T01:47:55;5.22;;;1.27;;
70444;SDS011;57902;49.638;11.070;2023-07-31T01:50:22;9.68;;;1.30;;
70444;SDS011;57902;49.638;11.070;2023-07-31T01:52:48;5.40;;;1.35;;
70444;SDS011;57902;49.638;11.070;2023-07-31T01:55:21;5.78;;;1.30;;
70444;SDS011;57902;49.638;11.070;2023-07-31T01:57:47;4.20;;;1.05;;
70444;SDS011;57902;49.638;11.070;2023-07-31T02:00:15;5.55;;;1.20;;
70444;SDS011;57902;49.638;11.070;2023-07-31T02:02:42;4.10;;;1.10;;
70444;SDS011;57902;49.638;11.070;2023-07-31T02:05:09;8.27;;;1.45;;
70444;SDS011;57902;49.638;11.070;2023-07-31T02:07:35;4.93;;;1.20;;
70444;SDS011;57902;49.638;11.070;2023-07-31T02:10:02;5.78;;;1.17;;
70444;SDS011;57902;49.638;11.070;2023-07-31T02:12:28;7.53;;;1.55;;
70444;SDS011;57902;49.638;11.070;2023-07-31T02:14:58;4.95;;;1.40;;
70444;SDS011;57902;49.638;11.070;2023-07-31T02:17:24;6.05;;;1.33;;
70444;SDS011;57902;49.638;11.070;2023-07-31T02:19:51;6.25;;;1.50;;
70444;SDS011;57902;49.638;11.070;2023-07-31T02:22:17;4.35;;;1.20;;
70444;SDS011;57902;49.638;11.070;2023-07-31T02:24:44;3.90;;;1.20;;
70444;SDS011;57902;49.638;11.070;2023-07-31T02:27:10;4.43;;;1.20;;
70444;SDS011;57902;49.638;11.070;2023-07-31T02:29:37;7.63;;;1.25;;
70444;SDS011;57902;49.638;11.070;2023-07-31T02:32:04;3.85;;;1.10;;
70444;SDS011;57902;49.638;11.070;2023-07-31T02:34:31;4.57;;;1.35;;
70444;SDS011;57902;49.638;11.070;2023-07-31T02:36:57;5.75;;;1.48;;
70444;SDS011;57902;49.638;11.070;2023-07-31T02:39:24;6.68;;;1.13;;
70444;SDS011;57902;49.638;11.070;2023-07-31T02:41:50;8.35;;;1.40;;
70444;SDS011;57902;49.638;11.070;2023-07-31T02:44:16;4.30;;;1.30;;
70444;SDS011;57902;49.638;11.070;2023-07-31T02:46:43;5.63;;;1.00;;
70444;SDS011;57902;49.638;11.070;2023-07-31T02:49:09;3.88;;;1.10;;
70444;SDS011;57902;49.638;11.070;2023-07-31T02:51:36;6.60;;;1.60;;
70444;SDS011;57902;49.638;11.070;2023-07-31T02:54:02;5.82;;;1.20;;
70444;SDS011;57902;49.638;11.070;2023-07-31T02:56:29;5.35;;;1.25;;
70444;SDS011;57902;49.638;11.070;2023-07-31T02:58:55;6.53;;;1.30;;
70444;SDS011;57902;49.638;11.070;2023-07-31T03:01:22;5.07;;;1.50;;
70444;SDS011;57902;49.638;11.070;2023-07-31T03:03:48;4.32;;;1.52;;
70444;SDS011;57902;49.638;11.070;2023-07-31T03:06:15;5.13;;;1.40;;
70444;SDS011;57902;49.638;11.070;2023-07-31T03:08:41;6.07;;;1.50;;
70444;SDS011;57902;49.638;11.070;2023-07-31T03:11:08;6.60;;;1.30;;
70444;SDS011;57902;49.638;11.070;2023-07-31T03:13:34;5.18;;;1.20;;
70444;SDS011;57902;49.638;11.070;2023-07-31T03:16:01;6.57;;;1.17;;
70444;SDS011;57902;49.638;11.070;2023-07-31T03:18:27;6.60;;;1.23;;
70444;SDS011;57902;49.638;11.070;2023-07-31T03:20:54;4.20;;;1.25;;
70444;SDS011;57902;49.638;11.070;2023-07-31T03:23:20;6.47;;;1.50;;
70444;SDS011;57902;49.638;11.070;2023-07-31T03:26:00;5.68;;;1.15;;
70444;SDS011;57902;49.638;11.070;2023-07-31T03:28:29;3.38;;;1.10;;
70444;SDS011;57902;49.638;11.070;2023-07-31T03:30:56;5.15;;;1.08;;
70444;SDS011;57902;49.638;11.070;2023-07-31T03:33:22;6.03;;;1.40;;
70444;SDS011;57902;49.638;11.070;2023-07-31T03:35:49;9.00;;;1.48;;
70444;SDS011;57902;49.638;11.070;2023-07-31T03:38:15;3.70;;;1.23;;
70444;SDS011;57902;49.638;11.070;2023-07-31T03:40:42;4.15;;;1.35;;
70444;SDS011;57902;49.638;11.070;2023-07-31T03:43:08;5.88;;;1.30;;
70444;SDS011;57902;49.638;11.070;2023-07-31T03:45:35;5.95;;;1.52;;
70444;SDS011;57902;49.638;11.070;2023-07-31T03:48:02;8.35;;;1.40;;
70444;SDS011;57902;49.638;11.070;2023-07-31T03:50:30;6.15;;;1.42;;
70444;SDS011;57902;49.638;11.070;2023-07-31T03:52:56;3.80;;;1.10;;
70444;SDS011;57902;49.638;11.070;2023-07-31T03:55:37;7.03;;;1.45;;
70444;SDS011;57902;49.638;11.070;2023-07-31T03:58:03;5.28;;;1.52;;
70444;SDS011;57902;49.638;11.070;2023-07-31T04:00:30;4.68;;;1.38;;
70444;SDS011;57902;49.638;11.070;2023-07-31T04:02:57;5.82;;;1.60;;
70444;SDS011;57902;49.638;11.070;2023-07-31T04:05:23;4.70;;;1.35;;
70444;SDS011;57902;49.638;11.070;2023-07-31T04:07:50;5.78;;;1.23;;
70444;SDS011;57902;49.638;11.070;2023-07-31T04:10:16;4.18;;;1.30;;
70444;SDS011;57902;49.638;11.070;2023-07-31T04:12:43;7.43;;;1.40;;
70444;SDS011;57902;49.638;11.070;2023-07-31T04:15:09;3.63;;;1.08;;
70444;SDS011;57902;49.638;11.070;2023-07-31T04:17:38;4.97;;;1.27;;
70444;SDS011;57902;49.638;11.070;2023-07-31T04:20:05;6.53;;;1.50;;
70444;SDS011;57902;49.638;11.070;2023-07-31T04:22:32;4.18;;;1.25;;
70444;SDS011;57902;49.638;11.070;2023-07-31T04:24:59;3.50;;;1.13;;
70444;SDS011;57902;49.638;11.070;2023-07-31T04:27:25;5.68;;;1.20;;
70444;SDS011;57902;49.638;11.070;2023-07-31T04:29:52;3.97;;;1.20;;
70444;SDS011;57902;49.638;11.070;2023-07-31T04:32:18;5.43;;;1.15;;
70444;SDS011;57902;49.638;11.070;2023-07-31T04:34:46;5.20;;;1.23;;
70444;SDS011;57902;49.638;11.070;2023-07-31T04:37:12;4.70;;;1.20;;
70444;SDS011;57902;49.638;11.070;2023-07-31T04:39:39;5.72;;;1.30;;
70444;SDS011;57902;49.638;11.070;2023-07-31T04:42:06;7.85;;;1.52;;
70444;SDS011;57902;49.638;11.070;2023-07-31T04:44:32;3.67;;;1.40;;
70444;SDS011;57902;49.638;11.070;2023-07-31T04:46:59;4.70;;;1.27;;
70444;SDS011;57902;49.638;11.070;2023-07-31T04:49:25;4.57;;;1.20;;
70444;SDS011;57902;49.638;11.070;2023-07-31T04:51:52;5.72;;;1.20;;
70444;SDS011;57902;49.638;11.070;2023-07-31T04:54:18;7.97;;;1.40;;
70444;SDS011;57902;49.638;11.070;2023-07-31T04:56:45;4.05;;;1.30;;
70444;SDS011;57902;49.638;11.070;2023-07-31T04:59:14;4.55;;;1.30;;
70444;SDS011;57902;49.638;11.070;2023-07-31T05:01:40;4.65;;;1.30;;
70444;SDS011;57902;49.638;11.070;2023-07-31T05:04:07;8.75;;;1.38;;
70444;SDS011;57902;49.638;11.070;2023-07-31T05:06:33;6.05;;;1.45;;
70444;SDS011;57902;49.638;11.070;2023-07-31T05:09:00;3.70;;;1.27;;
70444;SDS011;57902;49.638;11.070;2023-07-31T05:11:26;4.63;;;1.20;;
70444;SDS011;57902;49.638;11.070;2023-07-31T05:13:53;5.03;;;1.50;;
70444;SDS011;57902;49.638;11.070;2023-07-31T05:16:19;6.63;;;1.23;;
70444;SDS011;57902;49.638;11.070;2023-07-31T05:18:47;6.93;;;1.27;;
70444;SDS011;57902;49.638;11.070;2023-07-31T05:21:13;6.57;;;1.65;;
70444;SDS011;57902;49.638;11.070;2023-07-31T05:23:40;5.68;;;1.20;;
70444;SDS011;57902;49.638;11.070;2023-07-31T05:26:07;5.13;;;1.70;;
70444;SDS011;57902;49.638;11.070;2023-07-31T05:28:35;7.35;;;1.52;;
70444;SDS011;57902;49.638;11.070;2023-07-31T05:31:03;4.47;;;1.20;;
70444;SDS011;57902;49.638;11.070;2023-07-31T05:33:30;6.07;;;1.40;;
70444;SDS011;57902;49.638;11.070;2023-07-31T05:35:57;5.03;;;1.40;;
70444;SDS011;57902;49.638;11.070;2023-07-31T05:38:23;4.18;;;1.30;;
70444;SDS011;57902;49.638;11.070;2023-07-31T05:40:50;4.78;;;1.42;;
70444;SDS011;57902;49.638;11.070;2023-07-31T05:43:16;6.50;;;1.33;;
70444;SDS011;57902;49.638;11.070;2023-07-31T05:45:43;4.25;;;1.55;;
70444;SDS011;57902;49.638;11.070;2023-07-31T05:48:10;4.07;;;1.38;;
70444;SDS011;57902;49.638;11.070;2023-07-31T05:50:36;4.82;;;1.35;;
70444;SDS011;57902;49.638;11.070;2023-07-31T05:53:20;3.88;;;1.40;;
70444;SDS011;57902;49.638;11.070;2023-07-31T05:55:50;5.13;;;1.50;;
70444;SDS011;57902;49.638;11.070;2023-07-31T05:58:17;5.85;;;1.30;;
70444;SDS011;57902;49.638;11.070;2023-07-31T06:00:44;3.28;;;1.25;;
70444;SDS011;57902;49.638;11.070;2023-07-31T06:03:10;4.78;;;1.38;;
70444;SDS011;57902;49.638;11.070;2023-07-31T06:05:37;6.07;;;1.70;;
70444;SDS011;57902;49.638;11.070;2023-07-31T06:08:03;7.80;;;1.40;;
70444;SDS011;57902;49.638;11.070;2023-07-31T06:10:30;5.22;;;1.42;;
70444;SDS011;57902;49.638;11.070;2023-07-31T06:12:56;6.25;;;1.73;;
70444;SDS011;57902;49.638;11.070;2023-07-31T06:15:23;6.20;;;1.40;;
70444;SDS011;57902;49.638;11.070;2023-07-31T06:17:50;4.78;;;1.48;;
70444;SDS011;57902;49.638;11.070;2023-07-31T06:20:16;3.67;;;1.33;;
70444;SDS011;57902;49.638;11.070;2023-07-31T06:22:43;7.22;;;1.40;;
70444;SDS011;57902;49.638;11.070;2023-07-31T06:25:09;5.07;;;1.20;;
70444;SDS011;57902;49.638;11.070;2023-07-31T06:27:41;9.88;;;1.65;;
70444;SDS011;57902;49.638;11.070;2023-07-31T06:30:07;5.57;;;1.75;;
70444;SDS011;57902;49.638;11.070;2023-07-31T06:32:34;6.82;;;1.45;;
70444;SDS011;57902;49.638;11.070;2023-07-31T06:35:01;5.65;;;1.40;;
70444;SDS011;57902;49.638;11.070;2023-07-31T06:37:27;6.85;;;1.60;;
70444;SDS011;57902;49.638;11.070;2023-07-31T06:39:54;5.40;;;1.30;;
70444;SDS011;57902;49.638;11.070;2023-07-31T06:42:20;4.93;;;1.33;;
70444;SDS011;57902;49.638;11.070;2023-07-31T06:44:50;6.13;;;1.45;;
70444;SDS011;57902;49.638;11.070;2023-07-31T06:47:17;5.25;;;1.45;;
70444;SDS011;57902;49.638;11.070;2023-07-31T06:49:43;5.60;;;1.42;;
70444;SDS011;57902;49.638;11.070;2023-07-31T06:52:10;6.78;;;1.60;;
70444;SDS011;57902;49.638;11.070;2023-07-31T06:54:37;5.55;;;1.35;;
70444;SDS011;57902;49.638;11.070;2023-07-31T06:57:04;7.00;;;1.70;;
70444;SDS011;57902;49.638;11.070;2023-07-31T06:59:30;5.35;;;1.30;;
70444;SDS011;57902;49.638;11.070;2023-07-31T07:01:57;4.47;;;1.60;;
70444;SDS011;57902;49.638;11.070;2023-07-31T07:04:23;5.40;;;1.48;;
70444;SDS011;57902;49.638;11.070;2023-07-31T07:06:50;6.93;;;1.42;;
70444;SDS011;57902;49.638;11.070;2023-07-31T07:09:17;5.18;;;1.40;;
70444;SDS011;57902;49.638;11.070;2023-07-31T07:11:44;5.82;;;1.40;;
70444;SDS011;57902;49.638;11.070;2023-07-31T07:14:10;4.72;;;1.30;;
70444;SDS011;57902;49.638;11.070;2023-07-31T07:16:40;5.18;;;1.60;;
70444;SDS011;57902;49.638;11.070;2023-07-31T07:19:07;6.47;;;1.33;;
70444;SDS011;57902;49.638;11.070;2023-07-31T07:21:34;6.93;;;1.40;;
70444;SDS011;57902;49.638;11.070;2023-07-31T07:24:00;5.53;;;1.38;;
70444;SDS011;57902;49.638;11.070;2023-07-31T07:26:27;5.97;;;1.63;;
70444;SDS011;57902;49.638;11.070;2023-07-31T07:28:53;7.78;;;1.60;;
70444;SDS011;57902;49.638;11.070;2023-07-31T07:31:20;5.45;;;1.60;;
70444;SDS011;57902;49.638;11.070;2023-07-31T07:33:47;6.65;;;1.67;;
70444;SDS011;57902;49.638;11.070;2023-07-31T07:36:13;6.43;;;1.67;;
70444;SDS011;57902;49.638;11.070;2023-07-31T07:38:40;7.47;;;1.55;;
70444;SDS011;57902;49.638;11.070;2023-07-31T07:41:07;7.88;;;1.80;;
70444;SDS011;57902;49.638;11.070;2023-07-31T07:43:34;4.57;;;1.60;;
70444;SDS011;57902;49.638;11.070;2023-07-31T07:46:00;5.40;;;1.60;;
70444;SDS011;57902;49.638;11.070;2023-07-31T07:48:27;6.38;;;1.50;;
70444;SDS011;57902;49.638;11.070;2023-07-31T07:50:53;6.25;;;1.50;;
70444;SDS011;57902;49.638;11.070;2023-07-31T07:53:20;5.88;;;1.48;;
70444;SDS011;57902;49.638;11.070;2023-07-31T07:55:48;4.97;;;1.70;;
70444;SDS011;57902;49.638;11.070;2023-07-31T07:58:15;7.97;;;1.70;;
70444;SDS011;57902;49.638;11.070;2023-07-31T08:00:41;7.18;;;1.52;;
70444;SDS011;57902;49.638;11.070;2023-07-31T08:03:08;6.88;;;1.80;;
70444;SDS011;57902;49.638;11.070;2023-07-31T08:05:36;6.35;;;1.60;;
70444;SDS011;57902;49.638;11.070;2023-07-31T08:08:02;11.85;;;1.70;;
70444;SDS011;57902;49.638;11.070;2023-07-31T08:10:29;8.05;;;1.85;;
70444;SDS011;57902;49.638;11.070;2023-07-31T08:12:57;4.50;;;1.58;;
70444;SDS011;57902;49.638;11.070;2023-07-31T08:15:24;6.60;;;1.90;;
70444;SDS011;57902;49.638;11.070;2023-07-31T08:17:50;4.75;;;1.48;;
70444;SDS011;57902;49.638;11.070;2023-07-31T08:20:20;8.60;;;1.75;;
70444;SDS011;57902;49.638;11.070;2023-07-31T08:23:04;6.35;;;1.63;;
70444;SDS011;57902;49.638;11.070;2023-07-31T08:25:54;6.15;;;1.60;;
70444;SDS011;57902;49.638;11.070;2023-07-31T08:28:34;7.20;;;1.60;;
70444;SDS011;57902;49.638;11.070;2023-07-31T08:31:09;7.38;;;1.80;;
70444;SDS011;57902;49.638;11.070;2023-07-31T08:33:40;5.88;;;1.70;;
70444;SDS011;57902;49.638;11.070;2023-07-31T08:36:23;6.43;;;1.67;;
70444;SDS011;57902;49.638;11.070;2023-07-31T08:39:01;5.75;;;1.60;;
70444;SDS011;57902;49.638;11.070;2023-07-31T08:41:47;6.75;;;1.70;;
70444;SDS011;57902;49.638;11.070;2023-07-31T08:44:23;9.90;;;1.80;;
70444;SDS011;57902;49.638;11.070;2023-07-31T08:46:59;9.90;;;1.52;;
70444;SDS011;57902;49.638;11.070;2023-07-31T08:49:28;4.90;;;1.73;;
70444;SDS011;57902;49.638;11.070;2023-07-31T08:52:00;5.43;;;1.50;;
70444;SDS011;57902;49.638;11.070;2023-07-31T08:54:33;5.90;;;1.83;;
70444;SDS011;57902;49.638;11.070;2023-07-31T08:57:06;4.90;;;1.50;;
70444;SDS011;57902;49.638;11.070;2023-07-31T08:59:36;7.03;;;1.60;;
70444;SDS011;57902;49.638;11.070;2023-07-31T09:02:10;5.80;;;1.90;;
70444;SDS011;57902;49.638;11.070;2023-07-31T09:04:48;7.50;;;1.80;;
70444;SDS011;57902;49.638;11.070;2023-07-31T09:07:21;6.30;;;1.90;;
70444;SDS011;57902;49.638;11.070;2023-07-31T09:09:51;6.10;;;1.70;;
70444;SDS011;57902;49.638;11.070;2023-07-31T09:12:20;7.22;;;1.70;;
70444;SDS011;57902;49.638;11.070;2023-07-31T09:14:57;6.55;;;1.63;;
70444;SDS011;57902;49.638;11.070;2023-07-31T09:17:34;8.35;;;1.77;;
70444;SDS011;57902;49.638;11.070;2023-07-31T09:20:19;6.50;;;1.58;;
70444;SDS011;57902;49.638;11.070;2023-07-31T09:25:36;7.82;;;1.98;;
70444;SDS011;57902;49.638;11.070;2023-07-31T09:28:14;6.63;;;1.70;;
70444;SDS011;57902;49.638;11.070;2023-07-31T09:31:13;7.15;;;1.90;;
70444;SDS011;57902;49.638;11.070;2023-07-31T09:33:55;6.45;;;1.60;;
70444;SDS011;57902;49.638;11.070;2023-07-31T09:36:32;6.03;;;1.55;;
70444;SDS011;57902;49.638;11.070;2023-07-31T09:39:05;6.28;;;1.50;;
70444;SDS011;57902;49.638;11.070;2023-07-31T09:44:39;6.78;;;1.88;;
70444;SDS011;57902;49.638;11.070;2023-07-31T09:47:25;7.53;;;1.50;;
70444;SDS011;57902;49.638;11.070;2023-07-31T09:50:06;7.78;;;1.85;;
70444;SDS011;57902;49.638;11.070;2023-07-31T09:52:38;7.28;;;1.88;;
70444;SDS011;57902;49.638;11.070;2023-07-31T09:55:23;7.70;;;1.70;;
70444;SDS011;57902;49.638;11.070;2023-07-31T09:57:59;4.43;;;1.42;;
70444;SDS011;57902;49.638;11.070;2023-07-31T10:00:32;7.10;;;1.60;;
70444;SDS011;57902;49.638;11.070;2023-07-31T10:03:09;4.80;;;1.50;;
70444;SDS011;57902;49.638;11.070;2023-07-31T10:05:50;5.60;;;1.70;;
70444;SDS011;57902;49.638;11.070;2023-07-31T10:09:10;8.18;;;2.17;;
70444;SDS011;57902;49.638;11.070;2023-07-31T10:15:07;5.20;;;1.70;;
70444;SDS011;57902;49.638;11.070;2023-07-31T10:18:05;8.18;;;1.75;;
70444;SDS011;57902;49.638;11.070;2023-07-31T10:31:52;5.38;;;1.70;;
70444;SDS011;57902;49.638;11.070;2023-07-31T10:34:55;6.38;;;1.92;;
70444;SDS011;57902;49.638;11.070;2023-07-31T10:37:37;9.15;;;1.80;;
70444;SDS011;57902;49.638;11.070;2023-07-31T10:44:20;6.43;;;1.70;;
70444;SDS011;57902;49.638;11.070;2023-07-31T11:09:30;7.38;;;1.80;;
70444;SDS011;57902;49.638;11.070;2023-07-31T11:16:30;6.65;;;1.48;;
70444;SDS011;57902;49.638;11.070;2023-07-31T11:30:54;5.30;;;1.52;;
70444;SDS011;57902;49.638;11.070;2023-07-31T11:34:20;8.85;;;1.95;;
70444;SDS011;57902;49.638;11.070;2023-07-31T11:40:51;7.22;;;1.63;;
70444;SDS011;57902;49.638;11.070;2023-07-31T11:47:47;6.45;;;1.70;;
70444;SDS011;57902;49.638;11.070;2023-07-31T11:51:25;3.90;;;1.48;;
70444;SDS011;57902;49.638;11.070;2023-07-31T11:54:20;6.93;;;1.73;;
70444;SDS011;57902;49.638;11.070;2023-07-31T11:58:19;5.78;;;1.70;;
70444;SDS011;57902;49.638;11.070;2023-07-31T12:20:18;6.03;;;1.80;;
70444;SDS011;57902;49.638;11.070;2023-07-31T12:23:37;6.00;;;1.63;;
70444;SDS011;57902;49.638;11.070;2023-07-31T12:27:18;6.90;;;1.80;;
70444;SDS011;57902;49.638;11.070;2023-07-31T12:38:06;7.63;;;1.75;;
70444;SDS011;57902;49.638;11.070;2023-07-31T12:40:59;7.63;;;1.88;;
70444;SDS011;57902;49.638;11.070;2023-07-31T12:44:05;5.53;;;1.70;;
70444;SDS011;57902;49.638;11.070;2023-07-31T12:58:56;6.75;;;1.90;;
70444;SDS011;57902;49.638;11.070;2023-07-31T13:05:44;7.93;;;2.28;;
70444;SDS011;57902;49.638;11.070;2023-07-31T13:08:12;6.10;;;1.83;;
70444;SDS011;57902;49.638;11.070;2023-07-31T13:15:07;9.35;;;2.00;;
70444;SDS011;57902;49.638;11.070;2023-07-31T13:21:39;5.18;;;1.60;;
70444;SDS011;57902;49.638;11.070;2023-07-31T13:28:03;7.55;;;1.83;;
70444;SDS011;57902;49.638;11.070;2023-07-31T13:35:23;5.78;;;1.75;;
70444;SDS011;57902;49.638;11.070;2023-07-31T13:46:02;5.75;;;1.70;;
70444;SDS011;57902;49.638;11.070;2023-07-31T13:55:51;8.18;;;2.00;;
70444;SDS011;57902;49.638;11.070;2023-07-31T13:59:07;5.93;;;1.88;;
70444;SDS011;57902;49.638;11.070;2023-07-31T14:02:27;8.43;;;1.95;;
70444;SDS011;57902;49.638;11.070;2023-07-31T14:05:58;6.55;;;1.85;;
70444;SDS011;57902;49.638;11.070;2023-07-31T14:08:33;7.35;;;2.00;;
70444;SDS011;57902;49.638;11.070;2023-07-31T14:14:55;5.88;;;2.10;;
70444;SDS011;57902;49.638;11.070;2023-07-31T14:17:50;6.60;;;1.85;;
70444;SDS011;57902;49.638;11.070;2023-07-31T14:20:55;5.82;;;1.90;;
70444;SDS011;57902;49.638;11.070;2023-07-31T14:23:22;6.75;;;1.90;;
70444;SDS011;57902;49.638;11.070;2023-07-31T14:25:49;6.22;;;1.80;;
70444;SDS011;57902;49.638;11.070;2023-07-31T14:28:16;5.20;;;1.88;;
70444;SDS011;57902;49.638;11.070;2023-07-31T14:30:42;5.40;;;2.00;;
70444;SDS011;57902;49.638;11.070;2023-07-31T14:33:09;7.72;;;1.88;;
70444;SDS011;57902;49.638;11.070;2023-07-31T14:35:35;5.50;;;1.73;;
70444;SDS011;57902;49.638;11.070;2023-07-31T14:38:02;6.20;;;1.92;;
70444;SDS011;57902;49.638;11.070;2023-07-31T14:40:28;10.93;;;2.30;;
70444;SDS011;57902;49.638;11.070;2023-07-31T14:42:55;6.95;;;2.28;;
70444;SDS011;57902;49.638;11.070;2023-07-31T14:45:22;7.43;;;1.92;;
70444;SDS011;57902;49.638;11.070;2023-07-31T14:47:48;4.78;;;1.65;;
70444;SDS011;57902;49.638;11.070;2023-07-31T14:50:15;7.68;;;1.98;;
70444;SDS011;57902;49.638;11.070;2023-07-31T14:52:45;7.50;;;2.30;;
70444;SDS011;57902;49.638;11.070;2023-07-31T14:55:11;6.97;;;1.90;;
70444;SDS011;57902;49.638;11.070;2023-07-31T14:57:38;8.35;;;2.10;;
70444;SDS011;57902;49.638;11.070;2023-07-31T15:00:05;8.55;;;2.40;;
70444;SDS011;57902;49.638;11.070;2023-07-31T15:02:34;6.80;;;1.85;;
70444;SDS011;57902;49.638;11.070;2023-07-31T15:07:28;6.45;;;1.92;;
70444;SDS011;57902;49.638;11.070;2023-07-31T15:09:54;9.43;;;1.98;;
70444;SDS011;57902;49.638;11.070;2023-07-31T15:12:21;5.75;;;2.00;;
70444;SDS011;57902;49.638;11.070;2023-07-31T15:14:48;6.00;;;2.17;;
70444;SDS011;57902;49.638;11.070;2023-07-31T15:17:15;5.40;;;1.80;;
70444;SDS011;57902;49.638;11.070;2023-07-31T15:19:42;7.35;;;2.22;;
70444;SDS011;57902;49.638;11.070;2023-07-31T15:22:08;7.53;;;2.15;;
70444;SDS011;57902;49.638;11.070;2023-07-31T15:24:37;7.00;;;2.20;;
70444;SDS011;57902;49.638;11.070;2023-07-31T15:27:03;6.07;;;1.90;;
70444;SDS011;57902;49.638;11.070;2023-07-31T15:29:30;6.28;;;2.05;;
70444;SDS011;57902;49.638;11.070;2023-07-31T15:31:59;5.63;;;2.00;;
70444;SDS011;57902;49.638;11.070;2023-07-31T15:34:26;7.10;;;2.22;;
70444;SDS011;57902;49.638;11.070;2023-07-31T15:36:53;9.82;;;1.90;;
70444;SDS011;57902;49.638;11.070;2023-07-31T15:39:19;7.65;;;2.30;;
70444;SDS011;57902;49.638;11.070;2023-07-31T15:41:46;7.57;;;2.33;;
70444;SDS011;57902;49.638;11.070;2023-07-31T15:44:12;5.88;;;1.95;;
70444;SDS011;57902;49.638;11.070;2023-07-31T15:46:39;7.03;;;2.00;;
70444;SDS011;57902;49.638;11.070;2023-07-31T15:49:06;7.60;;;1.90;;
70444;SDS011;57902;49.638;11.070;2023-07-31T15:51:33;7.40;;;2.13;;
70444;SDS011;57902;49.638;11.070;2023-07-31T15:54:00;6.70;;;1.85;;
70444;SDS011;57902;49.638;11.070;2023-07-31T15:56:26;7.90;;;2.15;;
70444;SDS011;57902;49.638;11.070;2023-07-31T15:58:59;6.68;;;2.03;;
70444;SDS011;57902;49.638;11.070;2023-07-31T16:01:27;7.15;;;2.03;;
70444;SDS011;57902;49.638;11.070;2023-07-31T16:03:54;6.28;;;1.95;;
70444;SDS011;57902;49.638;11.070;2023-07-31T16:06:21;7.07;;;1.90;;
70444;SDS011;57902;49.638;11.070;2023-07-31T16:08:47;5.15;;;1.80;;
70444;SDS011;57902;49.638;11.070;2023-07-31T16:11:14;5.93;;;2.33;;
70444;SDS011;57902;49.638;11.070;2023-07-31T16:13:40;7.20;;;1.90;;
70444;SDS011;57902;49.638;11.070;2023-07-31T16:16:07;7.82;;;2.10;;
70444;SDS011;57902;49.638;11.070;2023-07-31T16:18:33;9.50;;;2.30;;
70444;SDS011;57902;49.638;11.070;2023-07-31T16:21:00;7.93;;;1.95;;
70444;SDS011;57902;49.638;11.070;2023-07-31T16:23:27;6.35;;;2.05;;
70444;SDS011;57902;49.638;11.070;2023-07-31T16:25:56;8.45;;;2.00;;
70444;SDS011;57902;49.638;11.070;2023-07-31T16:28:23;6.25;;;2.10;;
70444;SDS011;57902;49.638;11.070;2023-07-31T16:30:50;7.82;;;2.10;;
70444;SDS011;57902;49.638;11.070;2023-07-31T16:33:16;9.88;;;2.20;;
70444;SDS011;57902;49.638;11.070;2023-07-31T16:35:43;7.28;;;2.28;;
70444;SDS011;57902;49.638;11.070;2023-07-31T16:38:09;8.43;;;2.03;;
70444;SDS011;57902;49.638;11.070;2023-07-31T16:40:36;9.07;;;2.55;;
70444;SDS011;57902;49.638;11.070;2023-07-31T16:43:05;9.55;;;2.28;;
70444;SDS011;57902;49.638;11.070;2023-07-31T16:45:33;6.78;;;2.10;;
70444;SDS011;57902;49.638;11.070;2023-07-31T16:48:00;6.82;;;2.17;;
70444;SDS011;57902;49.638;11.070;2023-07-31T16:52:54;7.22;;;1.80;;
70444;SDS011;57902;49.638;11.070;2023-07-31T16:55:32;6.90;;;2.20;;
70444;SDS011;57902;49.638;11.070;2023-07-31T16:58:00;6.50;;;2.00;;
70444;SDS011;57902;49.638;11.070;2023-07-31T17:00:27;5.68;;;1.98;;
70444;SDS011;57902;49.638;11.070;2023-07-31T17:03:05;6.45;;;2.22;;
70444;SDS011;57902;49.638;11.070;2023-07-31T17:05:45;9.10;;;2.20;;
70444;SDS011;57902;49.638;11.070;2023-07-31T17:08:13;7.88;;;2.50;;
70444;SDS011;57902;49.638;11.070;2023-07-31T17:10:44;8.07;;;1.88;;
70444;SDS011;57902;49.638;11.070;2023-07-31T17:13:11;8.25;;;1.92;;
70444;SDS011;57902;49.638;11.070;2023-07-31T17:15:38;6.55;;;1.85;;
70444;SDS011;57902;49.638;11.070;2023-07-31T17:18:05;9.50;;;2.38;;
70444;SDS011;57902;49.638;11.070;2023-07-31T17:20:32;9.20;;;2.47;;
70444;SDS011;57902;49.638;11.070;2023-07-31T17:22:59;6.82;;;2.20;;
70444;SDS011;57902;49.638;11.070;2023-07-31T17:25:26;5.22;;;1.90;;
70444;SDS011;57902;49.638;11.070;2023-07-31T17:27:53;7.55;;;2.08;;
70444;SDS011;57902;49.638;11.070;2023-07-31T17:30:23;5.82;;;1.95;;
70444;SDS011;57902;49.638;11.070;2023-07-31T17:32:50;7.57;;;2.30;;
70444;SDS011;57902;49.638;11.070;2023-07-31T17:35:17;6.50;;;2.15;;
70444;SDS011;57902;49.638;11.070;2023-07-31T17:37:44;7.53;;;2.00;;
70444;SDS011;57902;49.638;11.070;2023-07-31T17:40:11;7.93;;;1.95;;